London, West Virginia
Current Conditions -  °F | °C
As of 12:54 PM on Saturday 22 Nov 2014 (Local Time) from KCRW Reporting Station
Broken Clouds Broken Clouds  
Wind Chill: 60°   Ceiling: 11000
Heat Index: 60°   Visibility: 10mi
Dew Point: 26°   Wind: 12mph
Humidity: 27%   Direction: 240°WSW
Pressure: 30.26"   Gusts: NA
Location:  38.19°N, 81.37°W
Report Text: KCRW 221754Z 24010KT 10SM SCT055 BKN110 16/M03 A3026 RMK AO2 SLP252 BKN V SCT T01561033 10156 21072 58030
Loading
Personal Weather Stations






























Interactive Weather Map New forecast layout! Learn more

10-Day Weather Forecast

Advertisements
Track Severe Weather on mobile